Karol Zalewski

Chefscout - Cracovia
22 Feb 2028
Dienstag
Verarbeitung

Persönlichkeit

Anpassungsfähigkeit (15) Ehrgeiz (3) Kontroverse (18) Loyalität (16) Druck (15) Professionalität (14) Fairness (8) Temperament (6)

Profil

Trainerstil Demokratisch
Lizenz Nationale A
Entschlossenheit 12
Menschenführung 11
Motivation 10
Disziplin 10
Arbeitszufriedenheit
100%
Ermüdung
0%
Rolle Chefscout
Gehalt 61.1K p/W
Vertrag 14.03.2029

Leistung

Verhalten Gut
Trainingseffektivität
39%
Spielerentwicklung
20%
Verletzungsprävention
20%
Taktische Umsetzung
45%

Letzte Ereignisse

Nahm an einer Scouting-Besprechung teil jetzt
Nahm an einer Scouting-Besprechung teil jetzt
Nahm an einer Scouting-Besprechung teil jetzt
Empfahl ein Transferziel jetzt
Nahm an einer Scouting-Besprechung teil 7T her
Empfahl ein Transferziel 7T her
Empfahl ein Transferziel 7T her
Empfahl ein Transferziel 7T her

Aktuell beobachtet

118
Spieler Verein Status Fähigkeit Vertrauen Beobachtet Zuletzt beobachtet Letzte Stimme
Jefferson Palacios Korona Aktiv 108 / 99 58% 1 31.01.2028 -
Josh King Chelsea Aktiv 154 / 151 40% 1 24.01.2028 -
Ignacio Fernández Boston River Aktiv 78 / 103 40% 1 24.01.2028 -
Leandro Sanca Gornik Leczna Aktiv 115 / 127 58% 1 17.01.2028 -
Hamad Šaćirović Novi Pazar Aktiv 85 / 97 40% 1 12.01.2028 -
Juan Camilo Córdoba Deportivo Pereira Aktiv 104 / 108 40% 1 12.01.2028 -
Taher Mohamed Real Salt Lake Verhandlung 119 / 119 67% 1 01.01.2028 -
Junior Machis Atletico Venezuela Aktiv 71 / 95 40% 1 31.12.2027 -
David Atiemo Liberty Professionals Aktiv 90 / 83 40% 1 23.08.2027 -
Mikkel Hope Haugesund Aktiv 105 / 88 40% 1 23.08.2027 -
Lucas Camejo River Plate Aktiv 100 / 76 40% 1 16.08.2027 -
Ibrahim Sabiu Bendel Insurance Aktiv 77 / 90 40% 1 16.08.2027 -
Bartłomiej Gradecki Ruch Aktiv 103 / 119 58% 1 26.07.2027 -
Gonçalo Oliveira Benfica Aktiv 112 / 120 40% 1 05.07.2027 -
Patrik Wålemark Lech Aktiv 119 / 132 58% 1 21.06.2027 -
Oleh Ocheretko Austin FC Verhandlung 129 / 131 67% 1 01.06.2027 Befürworten
Khama Dolly Utrecht Verhandlung 123 / 124 67% 1 01.06.2027 Befürworten
Razvan Mitrita San Diego Football Club Verhandlung 118 / 120 66% 1 01.06.2027 -
Leo Castledine Middlesbrough Aktiv 125 / 120 40% 2 31.05.2027 -
Daniel Kelly Oxford United Aktiv 116 / 112 40% 1 29.05.2027 -
Christos Mouzakitis Hull City Aktiv 136 / 149 40% 2 28.05.2027 -
Thulani Dala Platinum Stars Aktiv 98 / 96 40% 2 28.05.2027 -
Jan Bürger Gillingham Aktiv 105 / 122 40% 3 27.05.2027 -
Othmane Maamma Watford Aktiv 123 / 135 40% 2 27.05.2027 -
Oscar Schwartau Norwich City Aktiv 115 / 135 40% 5 26.05.2027 -
Riley Owen Trento Aktiv 95 / 96 40% 4 25.05.2027 -
Shea Lacey Wolverhampton Aktiv 126 / 133 40% 1 22.05.2027 -
Christ Inao Oulaï Fiorentina Aktiv 143 / 146 40% 1 22.05.2027 -
Joel McGregor Swindon Town Aktiv 100 / 91 40% 1 21.05.2027 -
Jayden Addai Como Aktiv 127 / 123 40% 2 20.05.2027 -
Franz-Ethan Meichtry Genoa Aktiv 133 / 130 40% 1 20.05.2027 -
Ethan Williams Peterborough United Aktiv 115 / 128 40% 3 18.05.2027 -
Mfundo Vilakazi Kaizer Chiefs Aktiv 109 / 112 40% 1 17.05.2027 -
Davide Bartesaghi AC Milan Aktiv 127 / 147 40% 2 14.05.2027 -
Calum Agius Crewe Alexandra Aktiv 95 / 86 40% 1 14.05.2027 -
Paulo Cardoso Sporting CP Aktiv 91 / 95 40% 1 10.05.2027 -
Monty Batlhabane Polokwane City Aktiv 101 / 88 40% 1 08.05.2027 -
Jofre Torrents Ajax Aktiv 125 / 125 40% 1 08.05.2027 -
Lynden Edhart Cambuur Aktiv 114 / 123 40% 1 07.05.2027 -
Caleb Yirenkyi Coventry City Aktiv 144 / 151 40% 1 06.05.2027 -
Kai Enslin Charlton Athletic Aktiv 103 / 85 40% 1 06.05.2027 -
Sascha Britschgi Padova Aktiv 127 / 127 40% 1 05.05.2027 -
Matías Gómez Granada Aktiv 113 / 127 40% 1 30.04.2027 -
Leandro Martins Benfica Aktiv 97 / 101 40% 1 29.04.2027 -
Hazeem Bakre Crawley Town Aktiv 91 / 98 40% 1 28.04.2027 -
Alphadjo Cissé Como Aktiv 118 / 127 40% 1 24.04.2027 -
Jayden Luker Barnet Aktiv 103 / 110 40% 1 18.04.2027 -
Edvin Austbø West Ham United Aktiv 133 / 133 40% 1 17.04.2027 -
Ishmael Addo Heart of Lions Aktiv 76 / 96 40% 1 17.04.2027 -
Mandla Erasmus SuperSport United Aktiv 108 / 130 40% 2 18.01.2027 -
Luis Palma Lech Aktiv 116 / 109 40% 3 11.01.2027 -
Luis Vázquez Birmingham Aktiv 129 / 129 40% 1 11.01.2027 -
Lewis Morgan SuperSport United Verhandlung 126 / 126 67% 1 01.01.2027 Befürworten
Bongani Mothiba SuperSport United Aktiv 87 / 90 40% 2 31.12.2026 -
Dom Ballard Leyton Orient Aktiv 114 / 132 40% 1 31.12.2026 -
Rajmund Molnár Pogon Aktiv 120 / 115 40% 6 30.12.2026 -
Allahyar Sayyadmanesh Lech Aktiv 134 / 124 40% 2 30.12.2026 -
Sorba Thomas Stoke City Aktiv 133 / 137 40% 1 30.12.2026 -
Scott Twine Bristol City Aktiv 115 / 121 40% 1 30.12.2026 -
Brayan León Mamelodi Sundowns Aktiv 126 / 117 40% 1 27.12.2026 -
David Romero Parma Aktiv 116 / 126 40% 1 27.12.2026 -
Ammar Ramadan DAC Dunajska Streda Aktiv 134 / 137 40% 3 26.12.2026 -
Tomás González Piast Aktiv 112 / 121 40% 2 25.12.2026 -
Tshepang Moremi Orlando Pirates Aktiv 127 / 123 40% 1 24.12.2026 Mehr Infos nötig
Aidomo Emakhu Oxford United Aktiv 115 / 120 40% 1 22.12.2026 -
Alexis Cuello San Lorenzo Aktiv 138 / 137 40% 2 20.12.2026 -
Etiosa Ighodaro Kaizer Chiefs Aktiv 107 / 117 40% 3 19.12.2026 -
Martin Sekulić Ural Aktiv 104 / 112 40% 1 19.12.2026 -
Thalente Mbatha Orlando Pirates Aktiv 133 / 99 40% 1 19.12.2026 -
Mandla Mahlangu Ajax Cape Town Aktiv 113 / 110 40% 5 17.12.2026 -
Kévin Denkey FC Cincinnati Aktiv 135 / 144 40% 5 16.12.2026 -
Mihael Mlinarić Zaglebie Aktiv 126 / 125 40% 1 15.12.2026 -
David Miculescu FCSB Aktiv 112 / 124 40% 1 13.12.2026 -
Luciano Gondou CSKA Moscow Aktiv 132 / 115 40% 4 12.12.2026 -
José Martínes CSKA 1948 Aktiv 113 / 106 40% 1 10.12.2026 -
Bénie Traoré New York City Aktiv 124 / 125 40% 3 08.12.2026 -
Patryk Szwedzik Ruch Aktiv 105 / 106 40% 1 05.12.2026 -
Bohdan Viunnyk Lechia Aktiv 116 / 123 40% 2 04.12.2026 -
Yago Santiago Racing Santander Aktiv 122 / 120 40% 1 02.12.2026 -
Tamar Svetlin Korona Aktiv 115 / 114 40% 1 01.12.2026 -
Alexander Díaz Deportivo Riestra Aktiv 129 / 105 40% 1 01.12.2026 -
Pablo Rodríguez Lech Aktiv 133 / 126 40% 5 30.11.2026 -
Ramiro Ruiz Rodríguez Atlético Tucumán Aktiv 135 / 130 40% 1 30.11.2026 -
Peter Federico Gornik Zabrze Aktiv 133 / 119 40% 1 29.11.2026 -
Daniel Karlsbakk Sarpsborg 08 Aktiv 132 / 116 40% 1 25.11.2026 Mehr Infos nötig
Evidence Makgopa Orlando Pirates Aktiv 120 / 106 40% 2 24.11.2026 -
Joaquín Gho Argentinos Juniors Aktiv 134 / 113 40% 1 22.11.2026 -
Santiago Montiel Independiente Aktiv 126 / 129 40% 1 18.11.2026 -
Peter Christiansen Viking Aktiv 116 / 124 40% 1 15.11.2026 -
Ruben van Bommel Ferencvaros Aktiv 134 / 143 40% 1 15.11.2026 -
Albert Rusnak FK Senica Aktiv 91 / 97 40% 2 14.11.2026 -
Youssuf Sylla Jagiellonia Aktiv 112 / 119 40% 2 14.11.2026 -
Jacques Siwe Rubin Aktiv 114 / 104 40% 1 11.11.2026 -
Rafael Navarro St. Louis CITY SC Aktiv 136 / 117 40% 1 09.11.2026 -
Martín Ojeda Orlando City Aktiv 137 / 133 40% 1 08.11.2026 -
Tornike Morchiladze HNK Rijeka Aktiv 117 / 128 40% 1 08.11.2026 -
Jack Currie Oxford United Aktiv 122 / 124 40% 1 08.11.2026 -
Marcelo Allende Mamelodi Sundowns Aktiv 120 / 118 40% 1 07.11.2026 -
Michele Šego Hajduk Split Aktiv 124 / 126 40% 1 05.11.2026 -
Paul Mukairu Pogon Aktiv 120 / 115 40% 2 02.11.2026 -
Josh Sargent Toronto FC Aktiv 116 / 121 40% 1 31.10.2026 -
Leandro Godoy CSKA Sofia Aktiv 120 / 127 40% 1 30.10.2026 -
Bojan Radulović Huddersfield Town Aktiv 111 / 113 40% 1 24.10.2026 -
Duncan McGuire Houston Dynamo Aktiv 136 / 128 40% 2 22.10.2026 -
Patrik Mijić HNK Gorica Aktiv 111 / 118 40% 1 22.10.2026 -
Dejan Joveljić Seattle Sounders Aktiv 124 / 118 40% 1 21.10.2026 -
Victor Olatunji Real Salt Lake Aktiv 121 / 95 40% 1 20.10.2026 -
Antonio Galeano Remo Stars Aktiv 117 / 126 40% 1 20.10.2026 -
Bryan Ramírez FC Cincinnati Aktiv 130 / 115 40% 1 15.10.2026 -
Griffin Yow New England Revolution Aktiv 139 / 125 40% 1 15.10.2026 -
Christian Krasnodar Aktiv 127 / 138 40% 1 13.10.2026 -
Facundo Mura Inter Miami CF Aktiv 134 / 133 40% 1 11.10.2026 -
Theo Corbeanu Toronto FC Aktiv 138 / 131 40% 1 09.10.2026 -
Tomás Chancalay Minnesota United FC Aktiv 131 / 120 40% 1 08.10.2026 -
Elias Achouri San Diego Football Club Aktiv 134 / 145 40% 1 06.10.2026 -
Bashar Musa Lokomotivi Aktiv 88 / 68 40% 1 31.08.2026 -
Thiago Perugini San Lorenzo Aktiv 85 / 115 40% 1 18.08.2026 -
Tosin Olawale El-Kanemi Warriors Aktiv 80 / 103 40% 1 18.08.2026 -